UKBB

Boryspil International Airport

Code ICAO UKBB
Code IATA KBP
Nom Boryspil International Airport
Emplacement Kiev, Kyiv, UA
Élévation 427 pieds / 130.1 mètres
Latitude 50.34500122
Longitude 30.89469910
METAR UKBB 091030Z 02004MPS 1000 0800W R36R/1300U R36L/1500U -DZ PRFG OVC001 01/01 Q1014 TEMPO 0700 FG
Informations extras Afficher cartes et CFS
Afficher NOTAMS
Piste Longueur Largeur Surface Élévation
18L 13123 ft 197 ft CON 410 ft
18R 11483 ft 206 ft CON 419 ft
36R 13123 ft 197 ft CON 422 ft
36L 11483 ft 206 ft CON 403 ft